Time;durP1;ratioP1;P1;durP2;ratioP2;P2;SDS_P1;SDS_P2;PMS_P1;PMS_P2;Temp;Humidity;BMP_temperature;BMP_pressure;BME280_temperature;BME280_humidity;BME280_pressure;Samples;Min_cycle;Max_cycle;Signal;HPM_P1;HPM_P2
2022/10/14 00:03:18;;;;;;;5.72;2.55;;;;;;;;;;20836937;28;20049;-60
2022/10/14 00:13:20;;;;;;;7.00;4.18;;;;;;;;;;20836429;28;20048;-61
2022/10/14 00:23:22;;;;;;;5.22;3.35;;;;;;;;;;20836700;28;20058;-59
2022/10/14 00:33:24;;;;;;;7.38;3.17;;;;;;;;;;20835945;28;20055;-60
2022/10/14 00:43:27;;;;;;;7.10;3.28;;;;;;;;;;20834429;28;20106;-61
2022/10/14 00:53:29;;;;;;;4.97;2.50;;;;;;;;;;20833836;28;20056;-60
2022/10/14 01:03:32;;;;;;;5.45;2.40;;;;;;;;;;20833294;28;20057;-60
2022/10/14 01:13:37;;;;;;;4.38;2.60;;;;;;;;;;20833148;28;20584;-60
2022/10/14 01:24:01;;;;;;;4.93;2.42;;;;;;;;;;20831482;28;20080;-62
2022/10/14 01:34:08;;;;;;;3.65;2.30;;;;;;;;;;20830707;28;20097;-62
2022/10/14 01:44:16;;;;;;;5.05;2.60;;;;;;;;;;20830545;28;20056;-61
2022/10/14 01:54:32;;;;;;;3.13;1.92;;;;;;;;;;20829835;28;20434;-60
2022/10/14 02:04:43;;;;;;;4.10;2.13;;;;;;;;;;20829610;28;20053;-61
2022/10/14 02:15:04;;;;;;;4.13;1.73;;;;;;;;;;20830484;28;20073;-60
2022/10/14 02:25:16;;;;;;;4.45;2.40;;;;;;;;;;20835005;28;20104;-60
2022/10/14 02:35:19;;;;;;;4.50;2.40;;;;;;;;;;20844421;28;20075;-60
2022/10/14 02:45:28;;;;;;;5.97;2.10;;;;;;;;;;20843396;28;20050;-60
2022/10/14 02:55:31;;;;;;;4.07;1.92;;;;;;;;;;20842633;28;20046;-60
2022/10/14 03:05:33;;;;;;;4.50;2.45;;;;;;;;;;20841989;28;20516;-60
2022/10/14 03:15:43;;;;;;;3.85;2.30;;;;;;;;;;20842154;28;20045;-62
2022/10/14 03:25:51;;;;;;;4.70;2.63;;;;;;;;;;20840866;28;20057;-61
2022/10/14 03:35:59;;;;;;;5.93;2.43;;;;;;;;;;20840913;28;20056;-60
2022/10/14 03:46:01;;;;;;;6.95;2.60;;;;;;;;;;20838736;28;20054;-59
2022/10/14 03:56:03;;;;;;;3.40;2.20;;;;;;;;;;20837824;28;20049;-60
2022/10/14 04:06:06;;;;;;;5.63;2.17;;;;;;;;;;20837680;28;20049;-61
2022/10/14 04:16:10;;;;;;;5.30;2.33;;;;;;;;;;20836555;28;20413;-60
2022/10/14 04:26:14;;;;;;;5.20;2.28;;;;;;;;;;20836094;28;20053;-60
2022/10/14 04:36:16;;;;;;;3.65;2.10;;;;;;;;;;20834603;28;20045;-60
2022/10/14 04:46:18;;;;;;;5.70;2.60;;;;;;;;;;20832857;28;20053;-59
2022/10/14 04:56:21;;;;;;;4.13;2.22;;;;;;;;;;20849567;28;20054;-60
2022/10/14 05:06:23;;;;;;;4.38;2.47;;;;;;;;;;20832359;28;20099;-61
2022/10/14 05:16:25;;;;;;;7.93;2.40;;;;;;;;;;20833631;28;20124;-60
2022/10/14 05:26:39;;;;;;;6.40;2.35;;;;;;;;;;20831475;28;20056;-60
2022/10/14 05:36:41;;;;;;;4.43;2.45;;;;;;;;;;20830925;28;20050;-61
2022/10/14 05:46:43;;;;;;;5.93;2.95;;;;;;;;;;20845316;28;20049;-59
2022/10/14 05:56:46;;;;;;;12.80;5.75;;;;;;;;;;20833588;28;20589;-59
2022/10/14 06:06:48;;;;;;;10.15;3.83;;;;;;;;;;20846704;28;20053;-60
2022/10/14 06:16:51;;;;;;;12.52;3.30;;;;;;;;;;20845696;28;20053;-61
2022/10/14 06:26:53;;;;;;;6.50;3.15;;;;;;;;;;20844440;28;20136;-61
2022/10/14 06:36:56;;;;;;;9.82;3.50;;;;;;;;;;20844072;28;20516;-61
2022/10/14 06:46:59;;;;;;;8.63;3.40;;;;;;;;;;20843046;28;20076;-60
2022/10/14 06:57:03;;;;;;;19.98;6.22;;;;;;;;;;20843416;28;20046;-60
2022/10/14 07:07:09;;;;;;;19.73;4.55;;;;;;;;;;20840974;28;20387;-61
2022/10/14 07:17:12;;;;;;;17.00;4.70;;;;;;;;;;20841570;28;20449;-60
2022/10/14 07:27:20;;;;;;;18.03;4.20;;;;;;;;;;20840109;28;20046;-60
2022/10/14 07:37:24;;;;;;;11.52;4.80;;;;;;;;;;20840275;28;20441;-60
2022/10/14 07:47:26;;;;;;;7.07;4.40;;;;;;;;;;20838706;28;20054;-60
2022/10/14 07:57:29;;;;;;;15.25;5.82;;;;;;;;;;20838558;28;20504;-60
2022/10/14 08:07:32;;;;;;;12.10;4.97;;;;;;;;;;20837440;28;20063;-60
2022/10/14 08:17:35;;;;;;;14.35;5.53;;;;;;;;;;20836497;28;20053;-60
2022/10/14 08:27:37;;;;;;;22.00;6.57;;;;;;;;;;20834651;28;20049;-60
2022/10/14 08:37:39;;;;;;;20.35;8.02;;;;;;;;;;20834703;28;20045;-61
2022/10/14 08:47:48;;;;;;;20.33;10.35;;;;;;;;;;20849197;28;20061;-60
2022/10/14 08:58:00;;;;;;;19.98;11.10;;;;;;;;;;20834690;28;20486;-60
2022/10/14 09:08:02;;;;;;;19.48;11.07;;;;;;;;;;20832389;28;20053;-61
2022/10/14 09:18:19;;;;;;;19.58;8.90;;;;;;;;;;20831956;28;20111;-61
2022/10/14 09:28:42;;;;;;;19.83;8.05;;;;;;;;;;20832205;28;20513;-60
2022/10/14 09:38:52;;;;;;;21.40;8.23;;;;;;;;;;20829260;28;20042;-60
2022/10/14 09:48:56;;;;;;;19.65;7.20;;;;;;;;;;20830187;28;20053;-61
2022/10/14 09:59:03;;;;;;;14.10;7.00;;;;;;;;;;20829815;28;20056;-61
2022/10/14 10:09:05;;;;;;;14.30;7.35;;;;;;;;;;20829829;28;20191;-62
2022/10/14 10:19:26;;;;;;;19.70;10.43;;;;;;;;;;20829674;28;20057;-61
2022/10/14 10:29:34;;;;;;;13.45;6.68;;;;;;;;;;20829153;28;20042;-61
2022/10/14 10:40:06;;;;;;;18.98;10.10;;;;;;;;;;20828619;28;20567;-61
2022/10/14 10:50:14;;;;;;;13.27;6.00;;;;;;;;;;20749594;28;20050;-60
2022/10/14 11:00:19;;;;;;;18.80;7.10;;;;;;;;;;20752147;28;20050;-60
2022/10/14 11:20:42;;;;;;;11.52;6.03;;;;;;;;;;20777671;28;20123;-61
2022/10/14 11:30:53;;;;;;;17.40;8.50;;;;;;;;;;20840190;28;20053;-61
2022/10/14 11:40:56;;;;;;;18.65;9.10;;;;;;;;;;20839003;28;20059;-60
2022/10/14 11:51:07;;;;;;;14.88;8.18;;;;;;;;;;20854260;28;20045;-61
2022/10/14 12:01:21;;;;;;;31.75;9.65;;;;;;;;;;20911538;28;20060;-60
2022/10/14 12:11:27;;;;;;;12.10;6.50;;;;;;;;;;20920463;28;20402;-59
2022/10/14 12:22:02;;;;;;;10.63;4.30;;;;;;;;;;20918239;28;20048;-63
2022/10/14 12:32:08;;;;;;;7.70;3.35;;;;;;;;;;20826771;28;20303;-65
2022/10/14 12:42:13;;;;;;;4.05;2.47;;;;;;;;;;20825429;28;20045;-61
2022/10/14 12:52:20;;;;;;;6.18;2.03;;;;;;;;;;20825388;28;20041;-62
2022/10/14 13:02:35;;;;;;;2.50;1.65;;;;;;;;;;20857375;28;20053;-62
2022/10/14 13:12:40;;;;;;;7.10;1.85;;;;;;;;;;20915649;28;20052;-62
2022/10/14 13:22:43;;;;;;;3.40;2.08;;;;;;;;;;20914664;28;20057;-61
2022/10/14 13:32:52;;;;;;;4.20;1.77;;;;;;;;;;20914757;28;20075;-61
2022/10/14 13:43:12;;;;;;;9.80;2.90;;;;;;;;;;20913495;28;20052;-62
2022/10/14 13:53:20;;;;;;;2.60;1.70;;;;;;;;;;20912833;28;20052;-61
2022/10/14 14:03:34;;;;;;;2.50;1.42;;;;;;;;;;20913608;28;20068;-62
2022/10/14 14:13:44;;;;;;;3.15;1.50;;;;;;;;;;20912033;28;20421;-62
2022/10/14 14:23:50;;;;;;;4.57;2.00;;;;;;;;;;20924223;28;20053;-60
2022/10/14 14:33:56;;;;;;;3.05;0.98;;;;;;;;;;20927365;28;20049;-65
2022/10/14 14:44:05;;;;;;;1.52;1.00;;;;;;;;;;20897328;28;20087;-75
2022/10/14 14:54:14;;;;;;;1.02;0.73;;;;;;;;;;20920428;28;20045;-68
2022/10/14 15:04:18;;;;;;;2.05;0.77;;;;;;;;;;20925744;28;20049;-70
2022/10/14 15:14:44;;;;;;;2.40;1.40;;;;;;;;;;20910115;28;20041;-70
2022/10/14 15:24:56;;;;;;;2.42;1.17;;;;;;;;;;20927679;28;20067;-66
2022/10/14 15:34:59;;;;;;;2.15;1.20;;;;;;;;;;20921666;28;20065;-64
2022/10/14 15:45:01;;;;;;;3.30;1.40;;;;;;;;;;20921357;28;20065;-65
2022/10/14 15:55:13;;;;;;;7.55;1.60;;;;;;;;;;20922570;28;20616;-64
2022/10/14 16:05:17;;;;;;;2.95;1.50;;;;;;;;;;20920781;28;20134;-68
2022/10/14 16:15:19;;;;;;;1.92;1.00;;;;;;;;;;20919518;28;20072;-65
2022/10/14 16:25:38;;;;;;;2.03;1.20;;;;;;;;;;20918465;28;20425;-66
2022/10/14 16:35:48;;;;;;;4.03;1.48;;;;;;;;;;20918444;28;20535;-63
2022/10/14 16:45:51;;;;;;;5.03;1.58;;;;;;;;;;20915363;28;20103;-68
2022/10/14 16:55:56;;;;;;;1.60;1.15;;;;;;;;;;20918521;28;20048;-66
2022/10/14 17:05:58;;;;;;;3.28;1.90;;;;;;;;;;20916795;28;20402;-63
2022/10/14 17:16:03;;;;;;;2.90;1.33;;;;;;;;;;20916181;28;20056;-66
2022/10/14 17:26:05;;;;;;;5.85;2.08;;;;;;;;;;20918632;28;20063;-64
2022/10/14 17:36:13;;;;;;;5.80;2.45;;;;;;;;;;20919243;28;20067;-74
2022/10/14 17:46:17;;;;;;;7.10;2.92;;;;;;;;;;20913612;28;20088;-72
2022/10/14 17:56:24;;;;;;;10.30;3.38;;;;;;;;;;20912825;28;20187;-71
2022/10/14 18:06:28;;;;;;;11.30;3.80;;;;;;;;;;20911678;28;20056;-71
2022/10/14 18:16:34;;;;;;;6.65;3.55;;;;;;;;;;20915018;28;20485;-68
2022/10/14 18:26:39;;;;;;;9.27;4.27;;;;;;;;;;20912690;28;20107;-68
2022/10/14 18:36:41;;;;;;;10.32;5.00;;;;;;;;;;20914618;28;20413;-68
2022/10/14 18:46:43;;;;;;;29.08;14.57;;;;;;;;;;20912362;28;20059;-66
2022/10/14 18:56:46;;;;;;;23.05;7.07;;;;;;;;;;20912530;28;20485;-60
2022/10/14 19:06:48;;;;;;;17.95;8.95;;;;;;;;;;20944202;28;20457;-63
2022/10/14 19:16:51;;;;;;;17.90;8.02;;;;;;;;;;20927795;28;20053;-68
2022/10/14 19:27:01;;;;;;;17.30;6.82;;;;;;;;;;20925742;28;20094;-63
2022/10/14 19:37:03;;;;;;;24.15;12.80;;;;;;;;;;20924582;28;20077;-64
2022/10/14 19:47:06;;;;;;;21.90;9.23;;;;;;;;;;20924788;28;20055;-69
2022/10/14 19:57:09;;;;;;;17.38;8.88;;;;;;;;;;20923244;28;20045;-66
2022/10/14 20:07:12;;;;;;;24.20;8.00;;;;;;;;;;20922887;28;20053;-64
2022/10/14 20:17:15;;;;;;;18.88;7.43;;;;;;;;;;20920990;28;20041;-67
2022/10/14 20:27:17;;;;;;;15.05;6.85;;;;;;;;;;20919811;28;20052;-67
2022/10/14 20:37:19;;;;;;;15.48;5.70;;;;;;;;;;20916294;28;20044;-60
2022/10/14 20:47:22;;;;;;;10.30;5.90;;;;;;;;;;20915758;28;20099;-61
2022/10/14 20:57:24;;;;;;;14.13;7.03;;;;;;;;;;20916358;28;20076;-60
2022/10/14 21:07:26;;;;;;;11.57;3.63;;;;;;;;;;20915495;28;20142;-61
2022/10/14 21:17:28;;;;;;;12.00;3.33;;;;;;;;;;20914647;28;20055;-66
2022/10/14 21:27:30;;;;;;;8.35;3.10;;;;;;;;;;20914485;28;20048;-62
2022/10/14 21:37:33;;;;;;;10.00;3.75;;;;;;;;;;20913567;28;20044;-65
2022/10/14 21:47:35;;;;;;;5.75;2.42;;;;;;;;;;20911488;28;20571;-68
2022/10/14 21:57:37;;;;;;;6.70;2.30;;;;;;;;;;20912677;28;20045;-68
2022/10/14 22:07:39;;;;;;;10.20;4.00;;;;;;;;;;20912334;28;20093;-61
2022/10/14 22:17:41;;;;;;;6.57;2.40;;;;;;;;;;20911867;28;20049;-60
2022/10/14 22:27:44;;;;;;;5.30;1.90;;;;;;;;;;20911632;28;20053;-61
2022/10/14 22:37:46;;;;;;;5.25;2.28;;;;;;;;;;20910026;28;20099;-61
2022/10/14 22:47:49;;;;;;;3.85;2.40;;;;;;;;;;20924412;28;20055;-65
2022/10/14 22:57:51;;;;;;;5.38;2.20;;;;;;;;;;20925789;28;20048;-61
2022/10/14 23:07:53;;;;;;;6.20;3.22;;;;;;;;;;20925900;28;20152;-61
2022/10/14 23:17:55;;;;;;;4.47;2.53;;;;;;;;;;20924363;28;20084;-60
2022/10/14 23:27:57;;;;;;;5.35;2.78;;;;;;;;;;20923717;28;20055;-61
2022/10/14 23:38:00;;;;;;;6.22;2.55;;;;;;;;;;20923996;28;20508;-66
2022/10/14 23:48:03;;;;;;;4.75;2.80;;;;;;;;;;20921584;28;20414;-61
2022/10/14 23:58:05;;;;;;;11.80;6.03;;;;;;;;;;20919774;28;20064;-61
